createdAt,value
2022-10-22T00:01:09.558Z,12.9
2022-10-22T00:03:11.822Z,12.9
2022-10-22T00:05:16.970Z,12.9
2022-10-22T00:07:19.059Z,12.9
2022-10-22T00:09:21.266Z,13
2022-10-22T00:16:30.334Z,12.9
2022-10-22T00:18:35.559Z,12.9
2022-10-22T00:24:42.123Z,12.9
2022-10-22T00:26:44.309Z,12.9
2022-10-22T00:30:48.700Z,12.9
2022-10-22T00:34:56.175Z,12.8
2022-10-22T00:39:00.381Z,12.7
2022-10-22T00:43:04.538Z,12.6
2022-10-22T00:45:06.634Z,12.5
2022-10-22T00:47:11.924Z,12.5
2022-10-22T00:49:14.008Z,12.5
2022-10-22T00:51:16.103Z,12.5
2022-10-22T00:53:18.224Z,12.5
2022-10-22T00:55:20.384Z,12.5
2022-10-22T00:57:22.571Z,12.5
2022-10-22T00:59:24.769Z,12.6
2022-10-22T01:01:30.159Z,12.6
2022-10-22T01:03:32.262Z,12.6
2022-10-22T01:05:34.330Z,12.6
2022-10-22T01:06:36.981Z,12.5
2022-10-22T01:08:39.177Z,12.4
2022-10-22T01:10:41.312Z,12.5
2022-10-22T01:12:43.629Z,12.4
2022-10-22T01:14:48.792Z,12.3
2022-10-22T01:16:50.928Z,12.4
2022-10-22T01:18:53.025Z,12.3
2022-10-22T01:20:55.200Z,12.3
2022-10-22T01:22:57.281Z,12.2
2022-10-22T01:25:01.007Z,12.2
2022-10-22T01:29:08.287Z,12.2
2022-10-22T01:31:10.471Z,12.2
2022-10-22T01:33:12.637Z,12.2
2022-10-22T01:35:14.842Z,12.2
2022-10-22T01:37:16.931Z,12.2
2022-10-22T01:39:19.120Z,12.3
2022-10-22T01:41:21.201Z,12.2
2022-10-22T01:43:26.631Z,12.2
2022-10-22T01:45:28.860Z,12.2
2022-10-22T01:47:31.050Z,12.2
2022-10-22T01:49:33.138Z,12.2
2022-10-22T01:51:35.320Z,12.2
2022-10-22T01:53:37.518Z,12.2
2022-10-22T01:55:39.580Z,12.3
2022-10-22T01:57:44.887Z,12.2
2022-10-22T01:59:47.002Z,12.2
2022-10-22T02:01:49.201Z,12.2
2022-10-22T02:02:52.090Z,12.2
2022-10-22T02:04:54.095Z,12.1
2022-10-22T02:08:58.350Z,12.1
2022-10-22T02:11:03.669Z,12
2022-10-22T02:13:05.847Z,12
2022-10-22T02:15:07.948Z,12
2022-10-22T02:19:12.313Z,12
2022-10-22T02:21:14.522Z,11.9
2022-10-22T02:23:16.697Z,11.9
2022-10-22T02:25:22.129Z,11.8
2022-10-22T02:27:26.856Z,11.9
2022-10-22T02:29:26.481Z,11.8
2022-10-22T02:31:28.674Z,11.8
2022-10-22T02:33:30.836Z,11.8
2022-10-22T02:49:51.508Z,11.7
2022-10-22T02:51:53.574Z,11.6
2022-10-22T02:53:58.977Z,11.7
2022-10-22T02:56:01.154Z,11.7
2022-10-22T03:00:32.146Z,11.6
2022-10-22T03:02:34.280Z,11.6
2022-10-22T03:04:36.477Z,11.7
2022-10-22T03:06:41.890Z,11.7
2022-10-22T03:08:44.001Z,11.7
2022-10-22T03:10:46.040Z,11.7
2022-10-22T03:12:48.231Z,11.7
2022-10-22T03:14:50.389Z,11.7
2022-10-22T03:16:52.570Z,11.7
2022-10-22T03:18:54.733Z,11.7
2022-10-22T03:21:00.142Z,11.6
2022-10-22T03:23:02.331Z,11.6
2022-10-22T03:25:04.516Z,11.7
2022-10-22T03:27:06.653Z,11.7
2022-10-22T03:29:08.751Z,11.6
2022-10-22T03:31:10.937Z,11.5
2022-10-22T03:33:13.105Z,11.6
2022-10-22T03:35:18.509Z,11.6
2022-10-22T03:37:20.725Z,11.6
2022-10-22T03:39:22.878Z,11.5
2022-10-22T03:41:24.935Z,11.5
2022-10-22T03:43:27.074Z,11.5
2022-10-22T03:45:29.235Z,11.5
2022-10-22T03:47:31.341Z,11.5
2022-10-22T03:49:36.766Z,11.5
2022-10-22T03:51:38.949Z,11.5
2022-10-22T03:53:41.098Z,11.5
2022-10-22T03:54:43.816Z,11.4
2022-10-22T03:56:45.884Z,11.5
2022-10-22T04:00:50.288Z,11.4
2022-10-22T04:02:55.528Z,11.4
2022-10-22T04:04:57.605Z,11.5
2022-10-22T04:06:59.771Z,11.4
2022-10-22T04:09:01.987Z,11.5
2022-10-22T04:11:04.115Z,11.5
2022-10-22T04:13:06.283Z,11.4
2022-10-22T04:15:08.439Z,11.5
2022-10-22T04:17:13.855Z,11.5
2022-10-22T04:19:15.913Z,11.5
2022-10-22T04:21:18.006Z,11.5
2022-10-22T04:23:20.135Z,11.6
2022-10-22T04:25:22.337Z,11.6
2022-10-22T04:27:24.479Z,11.6
2022-10-22T04:29:26.625Z,11.6
2022-10-22T04:31:32.078Z,11.6
2022-10-22T04:33:34.101Z,11.6
2022-10-22T04:41:42.745Z,11.6
2022-10-22T04:43:44.808Z,11.7
2022-10-22T04:45:50.177Z,11.7
2022-10-22T04:47:52.303Z,11.6
2022-10-22T04:50:57.065Z,11.6
2022-10-22T04:55:01.415Z,11.7
2022-10-22T04:57:03.585Z,11.8
2022-10-22T04:59:08.910Z,11.8
2022-10-22T05:01:11.153Z,11.8
2022-10-22T05:03:13.348Z,11.8
2022-10-22T05:05:15.505Z,11.9
2022-10-22T05:07:17.700Z,11.7
2022-10-22T05:09:19.969Z,11.7
2022-10-22T05:11:22.026Z,11.7
2022-10-22T05:13:27.348Z,11.7
2022-10-22T05:15:29.495Z,11.7
2022-10-22T05:17:31.577Z,11.6
2022-10-22T05:19:33.775Z,11.7
2022-10-22T05:21:35.933Z,11.6
2022-10-22T05:23:38.131Z,11.7
2022-10-22T05:25:40.297Z,11.7
2022-10-22T05:27:45.691Z,11.6
2022-10-22T05:31:49.953Z,11.6
2022-10-22T05:33:52.033Z,11.7
2022-10-22T05:40:12.381Z,11.7
2022-10-22T05:42:03.957Z,11.8
2022-10-22T05:44:06.120Z,11.7
2022-10-22T05:47:10.997Z,11.9
2022-10-22T05:49:13.194Z,12
2022-10-22T05:51:15.364Z,12.3
2022-10-22T05:53:17.542Z,12.6
2022-10-22T05:55:22.969Z,12.8
2022-10-22T05:57:25.169Z,12.9
2022-10-22T05:59:27.336Z,12.9
2022-10-22T06:01:29.396Z,12.9
2022-10-22T06:03:31.704Z,13
2022-10-22T06:05:33.643Z,13
2022-10-22T06:07:35.778Z,13.1
2022-10-22T06:09:41.133Z,13.2
2022-10-22T06:11:43.226Z,13.1
2022-10-22T06:13:45.314Z,13.2
2022-10-22T06:15:47.381Z,13.2
2022-10-22T06:17:49.665Z,13.2
2022-10-22T06:19:51.917Z,13.2
2022-10-22T06:21:53.946Z,13.2
2022-10-22T06:23:59.344Z,13.2
2022-10-22T06:26:01.434Z,13.4
2022-10-22T06:28:03.620Z,13.4
2022-10-22T06:30:05.711Z,13.4
2022-10-22T06:36:12.072Z,13.4
2022-10-22T06:38:17.286Z,13.5
2022-10-22T06:42:21.459Z,13.5
2022-10-22T06:44:50.340Z,13.6
2022-10-22T06:46:52.390Z,13.6
2022-10-22T06:48:54.588Z,13.6
2022-10-22T06:51:00.019Z,13.7
2022-10-22T06:53:02.093Z,13.8
2022-10-22T06:55:04.197Z,13.7
2022-10-22T06:57:06.268Z,13.7
2022-10-22T06:59:08.476Z,13.7
2022-10-22T07:01:10.594Z,13.7
2022-10-22T07:03:12.636Z,13.7
2022-10-22T07:05:17.845Z,13.8
2022-10-22T07:07:19.968Z,13.7
2022-10-22T07:09:22.162Z,13.8
2022-10-22T07:11:24.119Z,13.8
2022-10-22T07:13:26.209Z,13.8
2022-10-22T07:15:28.322Z,13.9
2022-10-22T07:21:39.247Z,14.1
2022-10-22T07:23:41.348Z,14.1
2022-10-22T07:25:43.552Z,14.2
2022-10-22T07:27:45.514Z,14.3
2022-10-22T07:29:47.623Z,14.2
2022-10-22T07:31:49.694Z,14.3
2022-10-22T07:33:54.941Z,14.2
2022-10-22T07:35:57.018Z,14.1
2022-10-22T07:37:59.129Z,14.1
2022-10-22T07:39:01.774Z,14.2
2022-10-22T07:41:03.834Z,14.2
2022-10-22T07:43:05.952Z,14.2
2022-10-22T07:45:08.053Z,14.3
2022-10-22T07:47:13.264Z,14.3
2022-10-22T07:51:17.475Z,14.4
2022-10-22T07:55:21.675Z,14.5
2022-10-22T07:57:23.759Z,14.6
2022-10-22T07:59:25.862Z,14.6
2022-10-22T08:01:31.174Z,14.6
2022-10-22T08:03:33.208Z,14.6
2022-10-22T08:11:41.592Z,14.9
2022-10-22T08:13:45.542Z,14.9
2022-10-22T08:15:50.469Z,14.9
2022-10-22T08:17:51.049Z,15
2022-10-22T08:19:53.175Z,15.1
2022-10-22T08:21:55.271Z,15.1
2022-10-22T08:23:57.423Z,15.1
2022-10-22T08:25:59.468Z,15.1
2022-10-22T08:28:01.575Z,15.2
2022-10-22T08:30:06.826Z,15.1
2022-10-22T08:32:08.912Z,15.1
2022-10-22T08:34:11.035Z,15.1
2022-10-22T08:35:16.795Z,15.2
2022-10-22T08:37:15.740Z,15.2
2022-10-22T08:39:17.863Z,15.2
2022-10-22T08:47:29.412Z,15.3
2022-10-22T08:49:31.517Z,15.3
2022-10-22T08:51:33.610Z,15.4
2022-10-22T08:53:35.718Z,15.5
2022-10-22T09:07:53.627Z,15.6
2022-10-22T09:09:55.735Z,15.6
2022-10-22T09:12:00.996Z,15.6
2022-10-22T09:14:03.197Z,15.6
2022-10-22T09:16:05.213Z,15.7
2022-10-22T09:22:11.531Z,15.7
2022-10-22T09:24:13.667Z,15.8
2022-10-22T09:26:18.902Z,15.8
2022-10-22T09:28:21.024Z,15.8
2022-10-22T09:30:23.130Z,15.7
2022-10-22T09:31:25.761Z,15.6
2022-10-22T09:33:27.885Z,15.6
2022-10-22T09:35:29.962Z,15.6
2022-10-22T09:37:32.088Z,15.7
2022-10-22T09:39:37.327Z,15.7
2022-10-22T09:41:39.438Z,15.7
2022-10-22T09:43:41.530Z,15.6
2022-10-22T09:45:43.647Z,15.6
2022-10-22T09:48:01.032Z,15.7
2022-10-22T09:49:47.870Z,15.7
2022-10-22T09:51:49.976Z,15.7
2022-10-22T09:53:55.309Z,15.8
2022-10-22T09:55:57.355Z,15.7
2022-10-22T09:57:59.456Z,15.8
2022-10-22T10:00:01.595Z,15.8
2022-10-22T10:02:13.702Z,16
2022-10-22T10:04:09.342Z,16
2022-10-22T10:06:07.621Z,16
2022-10-22T10:08:12.858Z,16
2022-10-22T10:10:15.011Z,16
2022-10-22T10:12:17.089Z,16.1
2022-10-22T10:14:19.201Z,16.2
2022-10-22T10:16:21.327Z,16.3
2022-10-22T10:18:23.424Z,16.2
2022-10-22T10:20:25.542Z,16.2
2022-10-22T10:24:32.912Z,16.3
2022-10-22T10:26:35.014Z,16.2
2022-10-22T10:29:03.646Z,16.4
2022-10-22T10:31:05.816Z,16.3
2022-10-22T10:33:07.956Z,16.4
2022-10-22T10:35:13.203Z,16.4
2022-10-22T10:37:15.302Z,16.5
2022-10-22T10:39:17.428Z,16.5
2022-10-22T10:41:19.536Z,16.5
2022-10-22T10:43:21.651Z,16.4
2022-10-22T10:45:23.771Z,16.5
2022-10-22T10:47:25.888Z,16.5
2022-10-22T10:49:31.144Z,16.6
2022-10-22T10:51:33.256Z,16.6
2022-10-22T10:53:35.357Z,16.7
2022-10-22T10:55:37.471Z,16.8
2022-10-22T10:59:41.703Z,16.8
2022-10-22T11:01:43.904Z,16.9
2022-10-22T11:05:51.172Z,17
2022-10-22T11:07:55.779Z,17
2022-10-22T11:09:55.409Z,17
2022-10-22T11:11:57.511Z,17
2022-10-22T11:13:59.614Z,17.2
2022-10-22T11:16:01.728Z,17.3
2022-10-22T11:18:07.002Z,17.3
2022-10-22T11:20:09.105Z,17.3
2022-10-22T11:22:11.209Z,17.4
2022-10-22T11:23:19.626Z,17.4
2022-10-22T11:25:15.965Z,17.4
2022-10-22T11:27:18.067Z,17.5
2022-10-22T11:29:20.179Z,17.4
2022-10-22T11:31:25.431Z,17.5
2022-10-22T11:35:29.666Z,17.6
2022-10-22T11:37:31.780Z,17.8
2022-10-22T11:39:33.902Z,18.1
2022-10-22T11:41:36.005Z,18.2
2022-10-22T11:43:38.131Z,18.1
2022-10-22T11:45:43.397Z,17.8
2022-10-22T11:47:45.519Z,17.8
2022-10-22T11:51:49.752Z,17.8
2022-10-22T11:53:51.856Z,17.9
2022-10-22T11:55:53.962Z,18.2
2022-10-22T11:57:56.077Z,18.2
2022-10-22T12:00:01.375Z,18.1
2022-10-22T12:02:03.465Z,18
2022-10-22T12:04:05.589Z,17.8
2022-10-22T12:06:07.690Z,18
2022-10-22T12:08:14.793Z,18.3
2022-10-22T12:10:13.836Z,18.4
2022-10-22T12:12:14.035Z,18.6
2022-10-22T12:14:19.275Z,18.8
2022-10-22T12:16:32.151Z,18.7
2022-10-22T12:18:23.521Z,18.4
2022-10-22T12:25:35.768Z,18.3
2022-10-22T12:27:37.970Z,18.5
2022-10-22T12:31:41.967Z,18.4
2022-10-22T12:33:44.081Z,18.2
2022-10-22T12:35:46.212Z,18.2
2022-10-22T12:37:48.313Z,18
2022-10-22T12:39:50.445Z,17.8
2022-10-22T12:41:55.691Z,17.8
2022-10-22T12:43:57.812Z,17.8
2022-10-22T12:48:02.031Z,17.7
2022-10-22T12:50:04.183Z,17.7
2022-10-22T12:52:08.651Z,17.7
2022-10-22T12:54:08.404Z,17.7
2022-10-22T12:56:13.668Z,17.7
2022-10-22T12:58:15.788Z,17.8
2022-10-22T13:00:17.878Z,17.8
2022-10-22T13:02:19.995Z,17.8
2022-10-22T13:04:22.118Z,17.8
2022-10-22T13:06:24.242Z,17.7
2022-10-22T13:08:26.525Z,17.7
2022-10-22T13:10:32.058Z,17.7
2022-10-22T13:12:34.412Z,17.7
2022-10-22T13:14:36.314Z,17.8
2022-10-22T13:17:41.440Z,17.9
2022-10-22T13:19:43.179Z,18.1
2022-10-22T13:21:45.305Z,18.1
2022-10-22T13:25:52.680Z,18.2
2022-10-22T13:27:54.803Z,18.4
2022-10-22T13:29:56.917Z,18.5
2022-10-22T13:31:59.035Z,18.5
2022-10-22T13:34:03.569Z,18.3
2022-10-22T13:36:03.267Z,18.4
2022-10-22T13:40:11.222Z,18.5
2022-10-22T13:42:12.772Z,18.6
2022-10-22T13:44:14.911Z,18.7
2022-10-22T13:46:17.018Z,18.5
2022-10-22T13:48:19.144Z,18.5
2022-10-22T13:50:21.266Z,18.5
2022-10-22T13:52:26.490Z,18.6
2022-10-22T13:54:28.617Z,18.6
2022-10-22T13:56:30.745Z,18.7
2022-10-22T13:58:32.848Z,18.8
2022-10-22T14:00:35.071Z,18.4
2022-10-22T14:02:37.083Z,18.2
2022-10-22T14:04:39.212Z,18
2022-10-22T14:06:44.476Z,17.8
2022-10-22T14:08:46.670Z,18.1
2022-10-22T14:10:48.710Z,17.7
2022-10-22T14:13:17.314Z,17.6
2022-10-22T14:19:26.840Z,19.9
2022-10-22T14:25:33.198Z,20.2
2022-10-22T14:29:37.438Z,20.9
2022-10-22T14:39:51.197Z,20.7
2022-10-22T14:41:53.298Z,21
2022-10-22T14:43:55.409Z,20.6
2022-10-22T14:45:57.518Z,20
2022-10-22T14:48:02.800Z,20.8
2022-10-22T14:50:04.923Z,20.4
2022-10-22T14:52:09.547Z,20.7
2022-10-22T14:54:09.167Z,21
2022-10-22T14:56:11.271Z,20.8
2022-10-22T14:58:13.375Z,20.6
2022-10-22T15:00:15.482Z,20.2
2022-10-22T15:02:20.747Z,20
2022-10-22T15:04:22.885Z,19.7
2022-10-22T15:06:24.996Z,19.3
2022-10-22T15:07:27.612Z,18.9
2022-10-22T15:09:29.745Z,18.7
2022-10-22T15:11:31.855Z,18.4
2022-10-22T15:13:33.995Z,18.2
2022-10-22T15:15:39.759Z,18.1
2022-10-22T15:17:41.630Z,18.3
2022-10-22T15:19:43.482Z,18.4
2022-10-22T15:21:45.763Z,17.9
2022-10-22T15:23:47.750Z,17.6
2022-10-22T15:29:57.331Z,17.2
2022-10-22T15:36:03.609Z,17
2022-10-22T15:38:05.731Z,17.1
2022-10-22T15:40:07.851Z,17
2022-10-22T15:44:15.225Z,17.1
2022-10-22T15:46:17.342Z,17
2022-10-22T15:52:23.699Z,16.9
2022-10-22T15:54:25.829Z,16.9
2022-10-22T15:56:27.951Z,16.8
2022-10-22T15:58:33.202Z,16.8
2022-10-22T16:00:35.385Z,16.7
2022-10-22T16:02:37.445Z,16.6
2022-10-22T16:03:40.086Z,16.6
2022-10-22T16:05:42.183Z,16.4
2022-10-22T16:07:44.533Z,16.5
2022-10-22T16:09:46.446Z,16.3
2022-10-22T16:13:53.812Z,16.2
2022-10-22T16:15:55.920Z,16.2
2022-10-22T16:17:58.038Z,16.1
2022-10-22T16:20:00.374Z,16
2022-10-22T16:22:02.301Z,15.9
2022-10-22T16:24:06.293Z,15.9
2022-10-22T16:26:09.661Z,15.7
2022-10-22T16:28:11.791Z,15.7
2022-10-22T16:30:13.911Z,15.7
2022-10-22T16:32:16.002Z,15.5
2022-10-22T16:34:18.123Z,15.4
2022-10-22T16:36:20.243Z,15.4
2022-10-22T16:38:22.363Z,15.2
2022-10-22T16:40:27.609Z,15.2
2022-10-22T16:42:29.729Z,15.2
2022-10-22T16:44:31.851Z,15.2
2022-10-22T16:46:33.962Z,15.1
2022-10-22T16:48:36.067Z,15.1
2022-10-22T16:50:38.190Z,15
2022-10-22T16:52:40.316Z,14.9
2022-10-22T16:54:45.542Z,14.9
2022-10-22T16:56:47.639Z,14.9
2022-10-22T16:58:49.759Z,14.8
2022-10-22T16:59:52.374Z,14.7
2022-10-22T17:03:56.611Z,14.6
2022-10-22T17:05:58.730Z,14.5
2022-10-22T17:12:08.183Z,14.3
2022-10-22T17:14:10.307Z,14.3
2022-10-22T17:16:12.415Z,14.3
2022-10-22T17:18:14.553Z,14.4
2022-10-22T17:20:16.669Z,14.3
2022-10-22T17:22:21.894Z,14.4
2022-10-22T17:24:24.012Z,14.4
2022-10-22T17:26:26.143Z,14.3
2022-10-22T17:28:28.232Z,14.2
2022-10-22T17:30:30.357Z,14.1
2022-10-22T17:32:32.472Z,14.1
2022-10-22T17:34:34.621Z,14
2022-10-22T17:36:39.831Z,13.8
2022-10-22T17:38:41.929Z,13.8
2022-10-22T17:40:44.075Z,13.8
2022-10-22T17:44:48.288Z,13.6
2022-10-22T17:48:52.511Z,13.5
2022-10-22T17:50:59.283Z,13.4
2022-10-22T17:52:59.862Z,13.5
2022-10-22T17:55:01.991Z,13.5
2022-10-22T17:57:30.637Z,13.4
2022-10-22T17:59:32.743Z,13.5
2022-10-22T18:11:48.512Z,13.2
2022-10-22T18:15:52.731Z,13.1
2022-10-22T18:17:57.950Z,13
2022-10-22T18:20:00.090Z,13
2022-10-22T18:22:02.278Z,13
2022-10-22T18:24:04.384Z,12.9
2022-10-22T18:26:06.480Z,12.9
2022-10-22T18:28:08.584Z,12.8
2022-10-22T18:30:10.693Z,12.7
2022-10-22T18:32:16.029Z,12.7
2022-10-22T18:34:20.390Z,12.7
2022-10-22T18:36:20.310Z,12.7
2022-10-22T18:38:22.392Z,12.7
2022-10-22T18:40:24.505Z,12.6
2022-10-22T18:42:29.195Z,12.7
2022-10-22T18:44:28.786Z,12.6
2022-10-22T18:46:34.237Z,12.6
2022-10-22T18:48:36.427Z,12.6
2022-10-22T18:50:38.628Z,12.5
2022-10-22T18:51:41.335Z,12.6
2022-10-22T18:53:53.724Z,12.5
2022-10-22T18:55:45.650Z,12.5
2022-10-22T18:59:57.119Z,12.4
2022-10-22T19:01:56.820Z,12.5
2022-10-22T19:03:58.906Z,12.4
2022-10-22T19:06:01.104Z,12.3
2022-10-22T19:08:03.303Z,12.3
2022-10-22T19:14:13.017Z,12.2
2022-10-22T19:22:21.579Z,12.2
2022-10-22T19:24:23.766Z,12.2
2022-10-22T19:26:25.969Z,12.2
2022-10-22T19:28:31.390Z,12.2
2022-10-22T19:30:33.566Z,12.2
2022-10-22T19:32:35.667Z,12.2
2022-10-22T19:34:37.769Z,12.2
2022-10-22T19:36:39.843Z,12.2
2022-10-22T19:38:42.040Z,12.2
2022-10-22T19:40:44.226Z,12.2
2022-10-22T19:42:49.566Z,12.2
2022-10-22T19:44:51.758Z,12.2
2022-10-22T19:46:53.950Z,12.1
2022-10-22T19:49:58.841Z,12.1
2022-10-22T19:52:01.016Z,12.1
2022-10-22T19:54:03.219Z,12.1
2022-10-22T19:56:08.619Z,12.1
2022-10-22T19:58:10.829Z,12
2022-10-22T20:00:12.984Z,12
2022-10-22T20:02:15.179Z,12.1
2022-10-22T20:04:17.371Z,12.1
2022-10-22T20:06:19.445Z,12
2022-10-22T20:08:21.619Z,12
2022-10-22T20:10:26.940Z,12
2022-10-22T20:12:29.124Z,12
2022-10-22T20:14:31.313Z,12
2022-10-22T20:16:33.382Z,11.9
2022-10-22T20:18:35.484Z,11.9
2022-10-22T20:20:37.681Z,12
2022-10-22T20:22:40.198Z,11.9
2022-10-22T20:28:49.544Z,11.8
2022-10-22T20:30:51.731Z,11.9
2022-10-22T20:32:53.904Z,11.9
2022-10-22T20:34:55.986Z,11.8
2022-10-22T20:36:58.179Z,11.8
2022-10-22T20:39:03.481Z,11.8
2022-10-22T20:41:05.594Z,11.7
2022-10-22T20:43:10.519Z,11.8
2022-10-22T20:44:10.506Z,11.7
2022-10-22T20:46:12.653Z,11.8
2022-10-22T20:48:14.838Z,11.7
2022-10-22T20:50:17.008Z,11.7
2022-10-22T20:52:22.247Z,11.7
2022-10-22T20:54:24.448Z,11.8
2022-10-22T20:56:26.600Z,11.7
2022-10-22T21:00:30.991Z,11.7
2022-10-22T21:02:33.169Z,11.7
2022-10-22T21:04:35.347Z,11.6
2022-10-22T21:06:40.675Z,11.7
2022-10-22T21:08:42.906Z,11.6
2022-10-22T21:10:45.200Z,11.7
2022-10-22T21:12:47.100Z,11.6
2022-10-22T21:14:49.198Z,11.7
2022-10-22T21:16:51.265Z,11.6
2022-10-22T21:18:53.362Z,11.6
2022-10-22T21:20:58.758Z,11.6
2022-10-22T21:23:00.964Z,11.6
2022-10-22T21:33:11.640Z,11.5
2022-10-22T21:37:19.282Z,11.4
2022-10-22T21:39:21.433Z,11.3
2022-10-22T21:41:50.319Z,11.2
2022-10-22T21:43:52.511Z,11.3
2022-10-22T21:45:54.588Z,11.3
2022-10-22T21:48:00.041Z,11.3
2022-10-22T21:50:02.194Z,11.2
2022-10-22T21:52:04.383Z,11.2
2022-10-22T21:54:06.538Z,11.2
2022-10-22T21:56:08.655Z,11.2
2022-10-22T21:58:10.828Z,11.2
2022-10-22T22:00:13.180Z,11.3
2022-10-22T22:02:18.528Z,11.3
2022-10-22T22:04:20.614Z,11.3
2022-10-22T22:06:22.827Z,11.4
2022-10-22T22:08:24.974Z,11.4
2022-10-22T22:10:27.085Z,11.3
2022-10-22T22:12:29.393Z,11.4
2022-10-22T22:14:31.354Z,11.4
2022-10-22T22:16:36.779Z,11.4
2022-10-22T22:18:38.987Z,11.4
2022-10-22T22:20:41.167Z,11.4
2022-10-22T22:24:45.528Z,11.5
2022-10-22T22:26:47.709Z,11.4
2022-10-22T22:28:49.876Z,11.4
2022-10-22T22:30:55.283Z,11.5
2022-10-22T22:32:57.414Z,11.5
2022-10-22T22:35:00.406Z,11.5
2022-10-22T22:36:03.111Z,11.4
2022-10-22T22:38:05.272Z,11.4
2022-10-22T22:40:07.340Z,11.5
2022-10-22T22:42:09.549Z,11.4
2022-10-22T22:46:17.145Z,11.4
2022-10-22T22:48:19.312Z,11.4
2022-10-22T22:50:21.501Z,11.3
2022-10-22T22:52:23.583Z,11.3
2022-10-22T22:54:25.666Z,11.4
2022-10-22T22:56:27.826Z,11.4
2022-10-22T22:58:33.245Z,11.3
2022-10-22T23:00:35.423Z,11.4
2022-10-22T23:02:37.494Z,11.4
2022-10-22T23:04:39.678Z,11.4
2022-10-22T23:06:41.759Z,11.4
2022-10-22T23:08:43.989Z,11.5
2022-10-22T23:10:46.006Z,11.5
2022-10-22T23:12:51.427Z,11.5
2022-10-22T23:14:53.600Z,11.5
2022-10-22T23:16:55.787Z,11.5
2022-10-22T23:18:57.973Z,11.5
2022-10-22T23:21:00.159Z,11.6
2022-10-22T23:23:02.338Z,11.6
2022-10-22T23:25:04.536Z,11.5
2022-10-22T23:27:09.831Z,11.6
2022-10-22T23:29:11.993Z,11.7
2022-10-22T23:31:14.172Z,11.7
2022-10-22T23:36:21.139Z,11.7
2022-10-22T23:38:23.332Z,11.6
2022-10-22T23:40:28.725Z,11.7
2022-10-22T23:42:30.841Z,11.7
2022-10-22T23:44:33.008Z,11.6
2022-10-22T23:46:35.216Z,11.7
2022-10-22T23:48:37.368Z,11.7
2022-10-22T23:50:39.545Z,11.6
2022-10-22T23:52:41.989Z,11.6
2022-10-22T23:54:47.155Z,11.7
2022-10-22T23:56:49.301Z,11.6
